Messwerte Rifle

Temperatur

Temperatur
°C
1618891200 22.00 22.00 3
1618894800 23.00 23.00 2
1618898400 0.00 0.00 -1
1618902000 1.00 1.00 -1
1618905600 2.00 2.00 -2
1618909200 3.00 3.00 -3
1618912800 4.00 4.00 -3
1618916400 5.00 5.00
1618920000 6.00 6.00 -5
1618923600 7.00 7.00 -5
1618927200 8.00 8.00 -4
1618930800 9.00 9.00 -2
1618934400 10.00 10.00 -1
1618938000 11.00 11.00 2
1618941600 12.00 12.00 5
1618945200 13.00 13.00 7
1618948800 14.00 14.00 8
1618952400 15.00 15.00 10
1618956000 16.00 16.00 11
1618959600 17.00 17.00 11
1618963200 18.00 18.00 11
1618966800 19.00 19.00 11
1618970400 20.00 20.00 9
1618974000 21.00 21.00 8

Aktuellste Messwerte

Wettercharakter
Wetter: klar
Temperatur
4 °C
Feuchtigkeit
30 %
Wind
5 km/hWindrichtung: Süd
Luftdruck
1018 hPa
Messzeit: 20. April 2021, 22.00Datenquelle: METAR

Weitere Messstationen in der Nähe

Messstation Temperatur Entfernung
Sunlight -7.0 °C 32 km
Meeker 1 °C 59 km
Eagle County Regional 3 °C 71 km
Grand Junction 4 °C 82 km
Aspen -1 °C 82 km
Craig 0 °C 109 km
Montrose 4 °C 114 km

Wind

Windrichtung Böen Mittelwind
° km/h km/h
1618891200 22.00 21.00 - 22.00 290° 45 30
1618894800 23.00 22.00 - 23.00 300° 50 25
1618898400 0.00 23.00 - 0.00 300° 45 25
1618902000 1.00 0.00 - 1.00 320° 45 35
1618905600 2.00 1.00 - 2.00 310° 40 25
1618909200 3.00 2.00 - 3.00 300° 15
1618912800 4.00 3.00 - 4.00 310° 15
1618916400 5.00 4.00 - 5.00
1618920000 6.00 5.00 - 6.00 290° 5
1618923600 7.00 6.00 - 7.00 0
1618927200 8.00 7.00 - 8.00 30° 5
1618930800 9.00 8.00 - 9.00 0
1618934400 10.00 9.00 - 10.00 0
1618938000 11.00 10.00 - 11.00 250° 5
1618941600 12.00 11.00 - 12.00 290° 5
1618945200 13.00 12.00 - 13.00 0
1618948800 14.00 13.00 - 14.00 0
1618952400 15.00 14.00 - 15.00 270° 10
1618956000 16.00 15.00 - 16.00
1618959600 17.00 16.00 - 17.00 340° 15
1618963200 18.00 17.00 - 18.00 320° 15
1618966800 19.00 18.00 - 19.00 320° 20
1618970400 20.00 19.00 - 20.00 340° 10
1618974000 21.00 20.00 - 21.00 260° 5

Ihre Wetterstation

Fehlt Ihre Wetterstation auf unserem Portal?

Schreiben Sie an network@meteonews.ch

Klima

Wann ist es am wärmsten? Wann regnet es am wenigsten? Unsere Klimadaten geben Auskunft.